EKTD weather

Tønder Airport
Tønder, South Denmark, Denmark

Public forecast

Using degrees Celsius for public forecast. Weather courtesy of forecast.io.

METAR (pilot weather report)

Report is more than 2 hours old.

Closest report is Westerland Sylt Airport, 17.3 nm (32.0 km) W. Retrieved 2019/08/23 18:50 UTC (2 hours ago):

EDXW 231850Z 27005KT CAVOK 18/17 Q1026

TAF (pilot weather forecast)

Forecast is more than 6 hours old.

Closest forecast is Skrydstrup Air Base, 22.8 nm (42.3 km) NE. Retrieved 2019/08/23 12:31 UTC (8 hours ago):

TAF EKSP 231128Z 2312/2412 24008KT 9999 SCT030 BKN200 TEMPO 2312/2315 25012G22KT TEMPO 2321/2324 1200 BCFG BECMG 2400/2402 VRB03KT 0100 FG VV001 TEMPO 2402/2406 1800 BR BKN003 BECMG 2406/2408 9999 NSW SCT030